createdAt,value
2023-04-18T00:00:24.683Z,2.70
2023-04-18T00:03:16.043Z,3.50
2023-04-18T00:06:06.532Z,3.40
2023-04-18T00:08:54.983Z,3.50
2023-04-18T00:11:43.599Z,3.30
2023-04-18T00:14:34.222Z,3.60
2023-04-18T00:17:22.634Z,3.20
2023-04-18T00:20:12.795Z,3.90
2023-04-18T00:23:02.780Z,4.30
2023-04-18T00:25:51.296Z,3.40
2023-04-18T00:28:39.785Z,3.73
2023-04-18T00:31:28.187Z,3.50
2023-04-18T00:34:16.587Z,3.93
2023-04-18T00:37:07.026Z,3.40
2023-04-18T00:39:56.873Z,3.87
2023-04-18T00:42:45.297Z,3.30
2023-04-18T00:45:35.770Z,3.37
2023-04-18T00:48:24.682Z,3.93
2023-04-18T00:51:13.399Z,3.60
2023-04-18T00:54:01.953Z,4.73
2023-04-18T00:56:51.717Z,3.93
2023-04-18T00:59:40.659Z,3.83
2023-04-18T01:02:30.571Z,3.73
2023-04-18T01:05:21.194Z,3.70
2023-04-18T01:08:09.567Z,4.53
2023-04-18T01:10:57.989Z,3.67
2023-04-18T01:14:01.572Z,3.97
2023-04-18T01:16:49.954Z,4.33
2023-04-18T01:19:40.739Z,4.83
2023-04-18T01:22:29.924Z,4.23
2023-04-18T01:25:19.708Z,4.33
2023-04-18T01:28:09.080Z,4.53
2023-04-18T01:30:57.587Z,4.20
2023-04-18T01:33:46.068Z,3.43
2023-04-18T01:36:35.017Z,4.73
2023-04-18T01:39:23.997Z,3.70
2023-04-18T01:42:15.254Z,5.00
2023-04-18T01:45:07.325Z,3.80
2023-04-18T01:47:55.948Z,3.60
2023-04-18T01:50:44.334Z,3.93
2023-04-18T01:53:33.489Z,4.30
2023-04-18T01:56:22.135Z,4.00
2023-04-18T01:59:11.931Z,4.30
2023-04-18T02:02:00.726Z,3.97
2023-04-18T02:04:49.147Z,4.43
2023-04-18T02:07:37.521Z,5.23
2023-04-18T02:10:26.065Z,4.00
2023-04-18T02:13:15.116Z,4.40
2023-04-18T02:16:05.080Z,4.63
2023-04-18T02:18:53.609Z,4.63
2023-04-18T02:21:44.497Z,3.90
2023-04-18T02:24:32.871Z,4.60
2023-04-18T02:27:21.196Z,4.23
2023-04-18T02:30:10.545Z,4.27
2023-04-18T02:33:00.393Z,4.27
2023-04-18T02:35:48.720Z,4.27
2023-04-18T02:38:37.626Z,4.80
2023-04-18T02:41:26.109Z,5.03
2023-04-18T02:44:17.144Z,3.90
2023-04-18T02:47:05.907Z,3.50
2023-04-18T02:49:58.323Z,4.27
2023-04-18T02:52:48.756Z,3.90
2023-04-18T02:55:41.673Z,4.73
2023-04-18T02:58:29.999Z,4.30
2023-04-18T03:01:19.007Z,4.53
2023-04-18T03:04:15.366Z,4.00
2023-04-18T03:07:17.071Z,4.70
2023-04-18T03:10:06.422Z,4.23
2023-04-18T03:12:57.189Z,3.80
2023-04-18T03:15:45.967Z,4.60
2023-04-18T03:18:35.057Z,4.07
2023-04-18T03:21:24.163Z,4.60
2023-04-18T03:24:14.298Z,4.20
2023-04-18T03:27:06.083Z,4.00
2023-04-18T03:29:55.030Z,3.63
2023-04-18T03:32:44.236Z,5.20
2023-04-18T03:35:32.705Z,4.60
2023-04-18T03:38:21.523Z,4.43
2023-04-18T03:41:11.631Z,4.87
2023-04-18T03:44:00.441Z,4.10
2023-04-18T03:46:49.720Z,4.03
2023-04-18T03:49:39.046Z,4.27
2023-04-18T03:52:29.625Z,4.17
2023-04-18T03:55:19.026Z,4.60
2023-04-18T03:58:09.472Z,4.60
2023-04-18T04:00:58.125Z,5.10
2023-04-18T04:03:47.398Z,3.90
2023-04-18T04:06:36.493Z,3.70
2023-04-18T04:09:25.177Z,4.17
2023-04-18T04:12:13.599Z,4.53
2023-04-18T04:15:03.406Z,4.73
2023-04-18T04:17:52.464Z,4.17
2023-04-18T04:20:42.534Z,3.83
2023-04-18T04:23:35.364Z,4.90
2023-04-18T04:26:24.094Z,5.23
2023-04-18T04:29:21.600Z,4.73
2023-04-18T04:32:12.924Z,4.23
2023-04-18T04:35:02.070Z,3.73
2023-04-18T04:37:52.794Z,4.47
2023-04-18T04:40:47.448Z,4.20
2023-04-18T04:43:36.040Z,4.30
2023-04-18T04:46:24.511Z,4.10
2023-04-18T04:49:14.367Z,4.63
2023-04-18T04:52:03.942Z,4.67
2023-04-18T04:54:53.120Z,4.83
2023-04-18T04:57:44.774Z,3.37
2023-04-18T05:00:47.186Z,5.07
2023-04-18T05:03:36.697Z,4.47
2023-04-18T05:06:27.679Z,4.80
2023-04-18T05:09:16.180Z,5.50
2023-04-18T05:12:05.314Z,5.43
2023-04-18T05:14:53.799Z,4.30
2023-04-18T05:17:42.276Z,4.90
2023-04-18T05:20:30.752Z,6.27
2023-04-18T05:23:20.493Z,4.70
2023-04-18T05:26:08.999Z,4.90
2023-04-18T05:28:57.382Z,4.90
2023-04-18T05:31:45.771Z,4.17
2023-04-18T05:34:38.046Z,4.57
2023-04-18T05:37:27.267Z,4.80
2023-04-18T05:40:17.204Z,5.23
2023-04-18T05:43:05.797Z,3.63
2023-04-18T05:45:55.915Z,4.30
2023-04-18T05:48:46.134Z,4.07
2023-04-18T05:51:34.516Z,4.00
2023-04-18T05:54:22.882Z,4.00
2023-04-18T05:57:12.736Z,4.93
2023-04-18T06:00:01.137Z,4.57
2023-04-18T06:02:49.744Z,4.67
2023-04-18T06:05:38.541Z,4.87
2023-04-18T06:08:26.993Z,4.10
2023-04-18T06:11:15.486Z,5.00
2023-04-18T06:14:05.407Z,4.77
2023-04-18T06:16:53.802Z,4.57
2023-04-18T06:19:42.171Z,4.53
2023-04-18T06:22:30.526Z,5.10
2023-04-18T06:25:19.335Z,4.90
2023-04-18T06:28:07.754Z,4.80
2023-04-18T06:30:57.467Z,5.20
2023-04-18T06:33:45.900Z,4.57
2023-04-18T06:36:34.458Z,4.80
2023-04-18T06:39:22.876Z,4.13
2023-04-18T06:42:11.289Z,4.53
2023-04-18T06:45:07.036Z,4.80
2023-04-18T06:47:56.847Z,4.50
2023-04-18T06:50:45.685Z,4.33
2023-04-18T06:53:34.064Z,3.63
2023-04-18T06:56:22.563Z,4.40
2023-04-18T06:59:11.061Z,3.67
2023-04-18T07:01:59.524Z,4.50
2023-04-18T07:04:49.274Z,4.43
2023-04-18T07:07:37.828Z,4.43
2023-04-18T07:10:26.230Z,4.50
2023-04-18T07:13:14.577Z,4.53
2023-04-18T07:16:03.075Z,5.00
2023-04-18T07:18:51.789Z,3.93
2023-04-18T07:21:43.677Z,4.33
2023-04-18T07:24:32.208Z,4.80
2023-04-18T07:27:20.626Z,4.70
2023-04-18T07:30:10.045Z,4.37
2023-04-18T07:32:58.483Z,5.03
2023-04-18T07:35:46.921Z,3.40
2023-04-18T07:38:36.689Z,3.90
2023-04-18T07:41:25.089Z,3.43
2023-04-18T07:44:13.689Z,3.53
2023-04-18T07:47:02.342Z,2.87
2023-04-18T07:49:50.819Z,4.77
2023-04-18T07:52:39.600Z,2.70
2023-04-18T07:55:29.445Z,3.50
2023-04-18T07:58:17.864Z,3.43
2023-04-18T08:01:07.082Z,3.27
2023-04-18T08:03:57.777Z,3.40
2023-04-18T08:06:46.364Z,3.10
2023-04-18T08:09:34.843Z,3.37
2023-04-18T08:12:24.764Z,2.90
2023-04-18T08:15:13.265Z,3.40
2023-04-18T08:18:02.044Z,3.27
2023-04-18T08:20:50.445Z,3.40
2023-04-18T08:23:38.986Z,2.63
2023-04-18T08:26:27.367Z,2.63
2023-04-18T08:29:17.118Z,3.10
2023-04-18T08:32:07.935Z,2.53
2023-04-18T08:34:57.284Z,3.27
2023-04-18T08:37:45.742Z,3.10
2023-04-18T08:40:34.112Z,2.93
2023-04-18T08:43:22.701Z,2.90
2023-04-18T08:46:12.741Z,2.30
2023-04-18T08:49:04.585Z,2.90
2023-04-18T08:51:54.012Z,2.73
2023-04-18T08:54:43.076Z,2.23
2023-04-18T08:57:33.351Z,1.93
2023-04-18T09:00:22.743Z,2.23
2023-04-18T09:03:15.704Z,2.53
2023-04-18T09:06:09.325Z,2.30
2023-04-18T09:08:58.930Z,2.90
2023-04-18T09:11:47.995Z,2.87
2023-04-18T09:14:37.579Z,2.20
2023-04-18T09:17:34.882Z,2.10
2023-04-18T09:20:35.790Z,2.33
2023-04-18T09:23:26.200Z,2.27
2023-04-18T09:26:14.698Z,2.20
2023-04-18T09:29:03.269Z,2.40
2023-04-18T09:31:57.332Z,2.33
2023-04-18T09:34:45.834Z,2.00
2023-04-18T09:37:36.357Z,2.37
2023-04-18T09:40:25.086Z,2.10
2023-04-18T09:43:20.527Z,2.17
2023-04-18T09:46:09.448Z,2.23
2023-04-18T09:48:57.864Z,2.00
2023-04-18T09:51:46.782Z,2.73
2023-04-18T09:54:39.707Z,1.70
2023-04-18T09:57:29.631Z,2.10
2023-04-18T10:00:24.365Z,2.00
2023-04-18T10:03:14.331Z,2.37
2023-04-18T10:06:02.950Z,2.10
2023-04-18T10:08:52.669Z,1.90
2023-04-18T10:11:42.534Z,2.00
2023-04-18T10:14:31.646Z,1.50
2023-04-18T10:17:21.595Z,1.97
2023-04-18T10:20:11.903Z,1.87
2023-04-18T10:23:00.866Z,1.90
2023-04-18T10:25:50.640Z,1.97
2023-04-18T10:28:54.443Z,2.13
2023-04-18T10:31:43.973Z,2.20
2023-04-18T10:34:32.436Z,2.20
2023-04-18T10:37:20.778Z,2.10
2023-04-18T10:40:10.950Z,2.10
2023-04-18T10:42:59.517Z,2.07
2023-04-18T10:46:20.487Z,2.00
2023-04-18T10:49:18.164Z,2.30
2023-04-18T10:52:06.992Z,1.70
2023-04-18T10:55:11.828Z,2.10
2023-04-18T10:58:00.708Z,2.20
2023-04-18T11:00:49.600Z,2.00
2023-04-18T11:03:39.437Z,2.10
2023-04-18T11:06:27.945Z,2.00
2023-04-18T11:09:17.052Z,2.23
2023-04-18T11:12:07.490Z,2.07
2023-04-18T11:14:55.986Z,2.50
2023-04-18T11:17:45.060Z,1.83
2023-04-18T11:20:41.029Z,2.03
2023-04-18T11:23:29.380Z,1.70
2023-04-18T11:26:19.770Z,2.07
2023-04-18T11:29:08.112Z,2.10
2023-04-18T11:31:58.573Z,2.03
2023-04-18T11:34:47.231Z,1.60
2023-04-18T11:37:37.669Z,1.80
2023-04-18T11:40:26.180Z,2.10
2023-04-18T11:43:21.200Z,1.83
2023-04-18T11:46:09.660Z,2.00
2023-04-18T11:48:58.110Z,1.60
2023-04-18T11:51:48.000Z,1.70
2023-04-18T11:54:39.350Z,1.53
2023-04-18T11:57:28.339Z,2.00
2023-04-18T12:00:19.078Z,2.00
2023-04-18T12:03:11.886Z,1.67
2023-04-18T12:06:01.864Z,1.57
2023-04-18T12:08:50.901Z,1.60
2023-04-18T12:11:42.659Z,1.80
2023-04-18T12:14:31.446Z,1.63
2023-04-18T12:17:19.816Z,2.00
2023-04-18T12:20:10.055Z,1.90
2023-04-18T12:22:58.500Z,1.87
2023-04-18T12:25:46.808Z,1.40
2023-04-18T12:28:36.622Z,1.87
2023-04-18T12:31:25.051Z,2.10
2023-04-18T12:34:13.688Z,2.07
2023-04-18T12:37:03.664Z,2.20
2023-04-18T12:39:52.006Z,1.90
2023-04-18T12:42:41.324Z,1.93
2023-04-18T12:45:31.254Z,1.70
2023-04-18T12:48:19.616Z,2.40
2023-04-18T12:51:07.995Z,2.10
2023-04-18T12:53:56.462Z,1.80
2023-04-18T12:56:46.256Z,1.70
2023-04-18T12:59:34.558Z,2.40
2023-04-18T13:02:24.601Z,1.90
2023-04-18T13:05:14.422Z,2.13
2023-04-18T13:10:55.225Z,2.37
2023-04-18T13:13:43.646Z,2.00
2023-04-18T13:16:32.140Z,1.73
2023-04-18T13:19:22.364Z,1.87
2023-04-18T13:22:10.748Z,2.50
2023-04-18T13:24:59.111Z,2.43
2023-04-18T13:27:47.458Z,1.97
2023-04-18T13:30:36.654Z,1.80
2023-04-18T13:33:24.922Z,2.30
2023-04-18T13:36:14.630Z,2.50
2023-04-18T13:39:04.566Z,2.30
2023-04-18T13:41:54.400Z,2.23
2023-04-18T13:44:42.812Z,2.10
2023-04-18T13:47:31.345Z,2.43
2023-04-18T13:50:20.305Z,2.50
2023-04-18T13:53:10.062Z,2.57
2023-04-18T13:55:58.529Z,2.20
2023-04-18T13:58:46.850Z,2.40
2023-04-18T14:01:35.429Z,2.27
2023-04-18T14:04:24.778Z,2.10
2023-04-18T14:07:15.220Z,1.93
2023-04-18T14:10:05.645Z,2.30
2023-04-18T14:12:54.064Z,2.40
2023-04-18T14:15:42.448Z,2.60
2023-04-18T14:18:30.850Z,2.37
2023-04-18T14:21:19.183Z,2.90
2023-04-18T14:24:09.619Z,2.20
2023-04-18T14:26:59.462Z,2.43
2023-04-18T14:29:48.932Z,2.33
2023-04-18T14:32:37.287Z,2.40
2023-04-18T14:35:25.668Z,2.50
2023-04-18T14:38:14.078Z,2.13
2023-04-18T14:41:02.652Z,2.20
2023-04-18T14:43:52.322Z,2.20
2023-04-18T14:46:41.367Z,2.00
2023-04-18T14:49:29.951Z,1.80
2023-04-18T14:52:18.522Z,2.90
2023-04-18T14:55:08.005Z,2.20
2023-04-18T14:57:56.395Z,1.70
2023-04-18T15:00:46.229Z,1.70
2023-04-18T15:03:34.723Z,1.83
2023-04-18T15:06:23.569Z,2.23
2023-04-18T15:09:11.922Z,2.97
2023-04-18T15:12:00.286Z,1.97
2023-04-18T15:14:48.702Z,2.40
2023-04-18T15:17:38.402Z,1.90
2023-04-18T15:20:27.138Z,2.07
2023-04-18T15:23:15.904Z,2.03
2023-04-18T15:26:04.442Z,2.00
2023-04-18T15:28:55.055Z,1.80
2023-04-18T15:31:43.484Z,1.90
2023-04-18T15:34:34.190Z,2.40
2023-04-18T15:37:22.749Z,2.07
2023-04-18T15:40:16.203Z,1.60
2023-04-18T15:43:04.652Z,2.27
2023-04-18T15:45:53.197Z,1.80
2023-04-18T15:48:41.580Z,2.03
2023-04-18T15:51:31.336Z,1.80
2023-04-18T15:54:19.785Z,2.00
2023-04-18T15:57:08.191Z,1.70
2023-04-18T15:59:57.069Z,1.70
2023-04-18T16:02:46.103Z,1.63
2023-04-18T16:05:34.614Z,1.80
2023-04-18T16:08:24.350Z,1.70
2023-04-18T16:11:13.559Z,1.80
2023-04-18T16:14:01.942Z,2.40
2023-04-18T16:16:50.307Z,1.80
2023-04-18T16:19:39.924Z,2.20
2023-04-18T16:22:28.313Z,2.00
2023-04-18T16:25:18.956Z,1.70
2023-04-18T16:28:07.287Z,1.93
2023-04-18T16:30:55.873Z,1.83
2023-04-18T16:33:45.312Z,2.77
2023-04-18T16:36:35.382Z,1.80
2023-04-18T16:39:23.680Z,2.93
2023-04-18T16:42:15.466Z,2.93
2023-04-18T16:45:04.926Z,1.87
2023-04-18T16:47:54.657Z,2.00
2023-04-18T16:50:45.559Z,1.90
2023-04-18T16:53:33.878Z,1.90
2023-04-18T16:56:22.273Z,2.07
2023-04-18T16:59:11.982Z,1.70
2023-04-18T17:02:00.461Z,1.80
2023-04-18T17:04:49.604Z,1.87
2023-04-18T17:07:38.029Z,2.20
2023-04-18T17:10:26.512Z,1.90
2023-04-18T17:13:14.989Z,1.70
2023-04-18T17:16:05.077Z,2.07
2023-04-18T17:18:53.463Z,2.20
2023-04-18T17:21:41.812Z,1.73
2023-04-18T17:24:30.155Z,2.40
2023-04-18T17:27:18.529Z,1.90
2023-04-18T17:30:08.258Z,2.40
2023-04-18T17:32:58.783Z,1.93
2023-04-18T17:35:48.183Z,2.10
2023-04-18T17:38:36.749Z,1.87
2023-04-18T17:41:25.090Z,1.87
2023-04-18T17:44:13.709Z,2.03
2023-04-18T17:47:02.199Z,2.30
2023-04-18T17:49:52.055Z,2.20
2023-04-18T17:52:40.637Z,2.00
2023-04-18T17:55:29.031Z,2.03
2023-04-18T17:58:17.525Z,1.97
2023-04-18T18:01:15.151Z,1.73
2023-04-18T18:04:03.675Z,2.10
2023-04-18T18:06:57.286Z,2.47
2023-04-18T18:09:46.326Z,2.23
2023-04-18T18:12:36.200Z,1.93
2023-04-18T18:15:25.267Z,2.00
2023-04-18T18:18:13.705Z,2.20
2023-04-18T18:21:02.132Z,2.33
2023-04-18T18:23:51.828Z,2.30
2023-04-18T18:26:40.274Z,2.13
2023-04-18T18:29:28.619Z,1.97
2023-04-18T18:32:17.042Z,2.00
2023-04-18T18:35:06.193Z,2.10
2023-04-18T18:37:54.594Z,2.00
2023-04-18T18:40:44.342Z,2.20
2023-04-18T18:43:32.974Z,2.30
2023-04-18T18:46:21.362Z,1.80
2023-04-18T18:49:09.955Z,2.17
2023-04-18T18:51:58.441Z,2.63
2023-04-18T18:54:46.820Z,2.70
2023-04-18T18:57:37.570Z,2.47
2023-04-18T19:00:26.265Z,2.03
2023-04-18T19:03:15.736Z,2.03
2023-04-18T19:06:07.058Z,2.40
2023-04-18T19:08:55.476Z,2.17
2023-04-18T19:11:43.840Z,2.03
2023-04-18T19:14:33.888Z,2.57
2023-04-18T19:17:24.715Z,2.33
2023-04-18T19:20:13.224Z,2.43
2023-04-18T19:23:01.564Z,2.00
2023-04-18T19:25:50.025Z,2.50
2023-04-18T19:28:38.532Z,2.03
2023-04-18T19:31:28.767Z,2.43
2023-04-18T19:34:18.850Z,1.80
2023-04-18T19:37:07.297Z,1.93
2023-04-18T19:39:55.732Z,2.40
2023-04-18T19:42:44.147Z,1.90
2023-04-18T19:45:32.666Z,1.90
2023-04-18T19:48:22.512Z,2.13
2023-04-18T19:51:11.001Z,2.07
2023-04-18T19:53:59.449Z,2.10
2023-04-18T19:56:47.825Z,2.00
2023-04-18T19:59:36.174Z,2.23
2023-04-18T20:02:24.708Z,1.90
2023-04-18T20:05:14.840Z,1.90
2023-04-18T20:08:03.232Z,2.30
2023-04-18T20:10:51.621Z,2.00
2023-04-18T20:13:40.319Z,1.77
2023-04-18T20:16:29.049Z,2.10
2023-04-18T20:19:17.890Z,2.17
2023-04-18T20:22:07.934Z,1.87
2023-04-18T20:24:57.315Z,1.90
2023-04-18T20:27:45.754Z,1.97
2023-04-18T20:30:34.922Z,1.90
2023-04-18T20:33:23.322Z,2.03
2023-04-18T20:36:11.699Z,2.10
2023-04-18T20:39:02.358Z,1.70
2023-04-18T20:41:51.463Z,2.00
2023-04-18T20:44:40.258Z,1.63
2023-04-18T20:47:28.668Z,1.60
2023-04-18T20:50:18.280Z,1.97
2023-04-18T20:53:06.777Z,1.70
2023-04-18T20:55:56.491Z,1.47
2023-04-18T20:58:44.890Z,1.80
2023-04-18T21:01:33.610Z,1.80
2023-04-18T21:04:24.689Z,1.60
2023-04-18T21:07:13.081Z,1.73
2023-04-18T21:10:01.445Z,2.03
2023-04-18T21:12:51.221Z,1.53
2023-04-18T21:15:39.707Z,1.90
2023-04-18T21:18:28.104Z,2.03
2023-04-18T21:21:16.495Z,1.80
2023-04-18T21:24:05.701Z,1.60
2023-04-18T21:26:54.120Z,2.10
2023-04-18T21:29:43.823Z,1.70
2023-04-18T21:32:32.226Z,1.90
2023-04-18T21:35:22.599Z,1.87
2023-04-18T21:38:12.555Z,2.07
2023-04-18T21:41:00.880Z,2.07
2023-04-18T21:43:49.418Z,2.00
2023-04-18T21:46:39.131Z,2.10
2023-04-18T21:49:27.527Z,2.10
2023-04-18T21:52:16.936Z,1.67
2023-04-18T21:55:06.200Z,1.80
2023-04-18T21:57:55.198Z,1.60
2023-04-18T22:00:43.595Z,1.73
2023-04-18T22:03:34.605Z,1.80
2023-04-18T22:06:23.584Z,2.00
2023-04-18T22:09:12.856Z,1.87
2023-04-18T22:12:03.420Z,2.10
2023-04-18T22:14:52.842Z,2.23
2023-04-18T22:17:41.821Z,1.90
2023-04-18T22:20:31.735Z,1.77
2023-04-18T22:23:20.083Z,1.83
2023-04-18T22:26:08.435Z,2.10
2023-04-18T22:28:56.799Z,2.10
2023-04-18T22:31:45.204Z,2.27
2023-04-18T22:34:33.621Z,2.27
2023-04-18T22:37:23.366Z,1.73
2023-04-18T22:40:12.871Z,2.40
2023-04-18T22:43:01.273Z,1.87
2023-04-18T22:45:49.682Z,2.30
2023-04-18T22:48:38.444Z,2.23
2023-04-18T22:51:28.692Z,2.10
2023-04-18T22:54:18.473Z,2.50
2023-04-18T22:57:06.822Z,2.50
2023-04-18T22:59:55.156Z,2.07
2023-04-18T23:02:43.666Z,2.57
2023-04-18T23:05:32.138Z,2.60
2023-04-18T23:08:22.568Z,2.30
2023-04-18T23:11:12.400Z,1.80
2023-04-18T23:14:00.816Z,2.23
2023-04-18T23:16:49.343Z,2.33
2023-04-18T23:19:37.700Z,2.50
2023-04-18T23:22:26.054Z,2.70
2023-04-18T23:25:14.544Z,2.43
2023-04-18T23:28:04.375Z,2.67
2023-04-18T23:30:53.287Z,2.30
2023-04-18T23:33:41.628Z,2.33
2023-04-18T23:36:29.937Z,2.50
2023-04-18T23:39:18.612Z,2.63
2023-04-18T23:42:07.044Z,2.57
2023-04-18T23:44:57.821Z,2.77
2023-04-18T23:47:46.352Z,2.50
2023-04-18T23:50:35.336Z,2.77
2023-04-18T23:53:24.884Z,2.70
2023-04-18T23:56:13.370Z,2.17
2023-04-18T23:59:01.704Z,2.20
